CheckWX is a tool to help pilots better visualize weather data.  It is not intended as a substitute for an official pre-flight weather briefing.

18:03:06 UTC

CYVV METAR
Wiarton Airport
Wiarton, Canada
Current

1 hour ago

CYVV 241700Z 34003KT 240V040 15SM BKN018 06/02 A2996 RMK SC7 SLP156
Observed
Apr-24 @ 17:00 UTC
Wind
  • 340° at 3 KTS
Visibility
15 SM
Flight Rules
MVFR
Cloud Levels
  • Broken at 1,800' AGL
Temperature
C / 43°F
Dewpoint
C / 36°F
Humidity
76%
Altimeter
29.96" Hg
Pressure
1014.52 hPa
Previous

2 hours ago

CYVV 241600Z 25005KT 230V300 15SM OVC020 05/02 A2998 RMK SC8 SLP160
Observed
Apr-24 @ 16:00 UTC
Wind
  • 250° at 5 KTS
Visibility
15 SM
Flight Rules
MVFR
Cloud Levels
  • Overcast at 2,000' AGL
Temperature
C / 41°F
Dewpoint
C / 36°F
Humidity
81%
Altimeter
29.98" Hg
Pressure
1015.22 hPa
Previous

3 hours ago

CYVV 241500Z 28004KT 15SM OVC020 04/01 A2998 RMK SC8 SLP160
Observed
Apr-24 @ 15:00 UTC
Wind
  • 280° at 4 KTS
Visibility
15 SM
Flight Rules
MVFR
Cloud Levels
  • Overcast at 2,000' AGL
Temperature
C / 39°F
Dewpoint
C / 34°F
Humidity
81%
Altimeter
29.98" Hg
Pressure
1015.22 hPa